sensor_id;sensor_type;location;lat;lon;timestamp;P1;durP1;ratioP1;P2;durP2;ratioP2
11086;SDS011;5597;47.588;9.642;2023-11-22T00:00:50;5.10;;;4.60;;
11086;SDS011;5597;47.588;9.642;2023-11-22T00:03:16;4.60;;;4.20;;
11086;SDS011;5597;47.588;9.642;2023-11-22T00:05:42;4.10;;;3.80;;
11086;SDS011;5597;47.588;9.642;2023-11-22T00:08:07;4.37;;;3.73;;
11086;SDS011;5597;47.588;9.642;2023-11-22T00:10:33;3.70;;;3.40;;
11086;SDS011;5597;47.588;9.642;2023-11-22T00:12:59;3.27;;;2.97;;
11086;SDS011;5597;47.588;9.642;2023-11-22T00:15:25;3.40;;;3.10;;
11086;SDS011;5597;47.588;9.642;2023-11-22T00:17:51;3.73;;;3.43;;
11086;SDS011;5597;47.588;9.642;2023-11-22T00:20:17;4.03;;;3.63;;
11086;SDS011;5597;47.588;9.642;2023-11-22T00:22:43;4.30;;;3.90;;
11086;SDS011;5597;47.588;9.642;2023-11-22T00:25:10;4.53;;;3.70;;
11086;SDS011;5597;47.588;9.642;2023-11-22T00:27:38;4.37;;;3.73;;
11086;SDS011;5597;47.588;9.642;2023-11-22T00:30:04;3.87;;;3.47;;
11086;SDS011;5597;47.588;9.642;2023-11-22T00:32:30;4.63;;;4.23;;
11086;SDS011;5597;47.588;9.642;2023-11-22T00:34:55;5.33;;;4.17;;
11086;SDS011;5597;47.588;9.642;2023-11-22T00:37:21;4.63;;;4.20;;
11086;SDS011;5597;47.588;9.642;2023-11-22T00:39:46;5.60;;;4.97;;
11086;SDS011;5597;47.588;9.642;2023-11-22T00:42:12;5.00;;;4.50;;
11086;SDS011;5597;47.588;9.642;2023-11-22T00:44:37;4.90;;;4.43;;
11086;SDS011;5597;47.588;9.642;2023-11-22T00:47:03;8.00;;;5.73;;
11086;SDS011;5597;47.588;9.642;2023-11-22T00:49:29;6.00;;;5.40;;
11086;SDS011;5597;47.588;9.642;2023-11-22T00:51:54;6.60;;;6.00;;
11086;SDS011;5597;47.588;9.642;2023-11-22T00:54:20;7.13;;;6.43;;
11086;SDS011;5597;47.588;9.642;2023-11-22T00:56:46;7.53;;;6.33;;
11086;SDS011;5597;47.588;9.642;2023-11-22T00:59:12;10.67;;;7.70;;
11086;SDS011;5597;47.588;9.642;2023-11-22T01:01:38;8.87;;;7.90;;
11086;SDS011;5597;47.588;9.642;2023-11-22T01:04:04;8.20;;;7.23;;
11086;SDS011;5597;47.588;9.642;2023-11-22T01:06:32;7.37;;;6.67;;
11086;SDS011;5597;47.588;9.642;2023-11-22T01:08:58;6.60;;;5.93;;
11086;SDS011;5597;47.588;9.642;2023-11-22T01:11:23;7.17;;;6.47;;
11086;SDS011;5597;47.588;9.642;2023-11-22T01:13:49;10.67;;;7.50;;
11086;SDS011;5597;47.588;9.642;2023-11-22T01:16:15;8.77;;;7.20;;
11086;SDS011;5597;47.588;9.642;2023-11-22T01:18:40;8.47;;;7.53;;
11086;SDS011;5597;47.588;9.642;2023-11-22T01:21:08;8.47;;;7.57;;
11086;SDS011;5597;47.588;9.642;2023-11-22T01:23:33;8.30;;;7.03;;
11086;SDS011;5597;47.588;9.642;2023-11-22T01:25:59;8.57;;;6.80;;
11086;SDS011;5597;47.588;9.642;2023-11-22T01:28:28;7.80;;;7.00;;
11086;SDS011;5597;47.588;9.642;2023-11-22T01:30:54;8.77;;;7.87;;
11086;SDS011;5597;47.588;9.642;2023-11-22T01:33:22;8.07;;;6.57;;
11086;SDS011;5597;47.588;9.642;2023-11-22T01:35:48;9.60;;;7.70;;
11086;SDS011;5597;47.588;9.642;2023-11-22T01:38:15;7.43;;;6.60;;
11086;SDS011;5597;47.588;9.642;2023-11-22T01:40:46;8.87;;;6.90;;
11086;SDS011;5597;47.588;9.642;2023-11-22T01:43:21;7.83;;;7.03;;
11086;SDS011;5597;47.588;9.642;2023-11-22T01:45:51;6.87;;;6.17;;
11086;SDS011;5597;47.588;9.642;2023-11-22T01:48:19;6.63;;;5.93;;
11086;SDS011;5597;47.588;9.642;2023-11-22T01:50:46;6.70;;;5.77;;
11086;SDS011;5597;47.588;9.642;2023-11-22T01:53:12;7.30;;;6.47;;
11086;SDS011;5597;47.588;9.642;2023-11-22T01:55:42;7.77;;;6.97;;
11086;SDS011;5597;47.588;9.642;2023-11-22T01:58:09;7.57;;;6.80;;
11086;SDS011;5597;47.588;9.642;2023-11-22T02:00:39;8.97;;;7.37;;
11086;SDS011;5597;47.588;9.642;2023-11-22T02:03:10;9.00;;;7.20;;
11086;SDS011;5597;47.588;9.642;2023-11-22T02:05:36;7.53;;;6.77;;
11086;SDS011;5597;47.588;9.642;2023-11-22T02:08:08;7.03;;;6.33;;
11086;SDS011;5597;47.588;9.642;2023-11-22T02:10:35;7.13;;;6.43;;
11086;SDS011;5597;47.588;9.642;2023-11-22T02:13:02;7.27;;;6.37;;
11086;SDS011;5597;47.588;9.642;2023-11-22T02:15:33;7.23;;;6.37;;
11086;SDS011;5597;47.588;9.642;2023-11-22T02:18:03;6.93;;;6.23;;
11086;SDS011;5597;47.588;9.642;2023-11-22T02:20:30;7.77;;;6.47;;
11086;SDS011;5597;47.588;9.642;2023-11-22T02:22:56;8.40;;;7.33;;
11086;SDS011;5597;47.588;9.642;2023-11-22T02:25:22;7.73;;;6.90;;
11086;SDS011;5597;47.588;9.642;2023-11-22T02:27:47;10.70;;;7.90;;
11086;SDS011;5597;47.588;9.642;2023-11-22T02:30:13;8.27;;;7.17;;
11086;SDS011;5597;47.588;9.642;2023-11-22T02:32:39;7.27;;;6.53;;
11086;SDS011;5597;47.588;9.642;2023-11-22T02:35:05;7.30;;;6.53;;
11086;SDS011;5597;47.588;9.642;2023-11-22T02:37:33;7.97;;;6.30;;
11086;SDS011;5597;47.588;9.642;2023-11-22T02:40:02;7.10;;;6.40;;
11086;SDS011;5597;47.588;9.642;2023-11-22T02:42:33;8.30;;;6.70;;
11086;SDS011;5597;47.588;9.642;2023-11-22T02:44:59;6.53;;;5.53;;
11086;SDS011;5597;47.588;9.642;2023-11-22T02:47:24;6.60;;;5.90;;
11086;SDS011;5597;47.588;9.642;2023-11-22T02:49:50;8.17;;;6.00;;
11086;SDS011;5597;47.588;9.642;2023-11-22T02:52:16;6.90;;;6.20;;
11086;SDS011;5597;47.588;9.642;2023-11-22T02:54:44;6.57;;;5.87;;
11086;SDS011;5597;47.588;9.642;2023-11-22T02:57:10;7.63;;;6.83;;
11086;SDS011;5597;47.588;9.642;2023-11-22T02:59:36;8.80;;;7.80;;
11086;SDS011;5597;47.588;9.642;2023-11-22T03:02:02;9.30;;;7.60;;
11086;SDS011;5597;47.588;9.642;2023-11-22T03:04:28;8.67;;;7.53;;
11086;SDS011;5597;47.588;9.642;2023-11-22T03:06:53;9.10;;;8.20;;
11086;SDS011;5597;47.588;9.642;2023-11-22T03:09:20;9.63;;;8.30;;
11086;SDS011;5597;47.588;9.642;2023-11-22T03:11:47;9.07;;;8.17;;
11086;SDS011;5597;47.588;9.642;2023-11-22T03:14:13;9.40;;;8.40;;
11086;SDS011;5597;47.588;9.642;2023-11-22T03:16:39;9.80;;;8.57;;
11086;SDS011;5597;47.588;9.642;2023-11-22T03:19:05;8.20;;;7.27;;
11086;SDS011;5597;47.588;9.642;2023-11-22T03:21:31;8.70;;;7.53;;
11086;SDS011;5597;47.588;9.642;2023-11-22T03:23:57;8.67;;;7.77;;
11086;SDS011;5597;47.588;9.642;2023-11-22T03:26:25;8.63;;;7.60;;
11086;SDS011;5597;47.588;9.642;2023-11-22T03:28:50;8.33;;;7.47;;
11086;SDS011;5597;47.588;9.642;2023-11-22T03:31:16;8.13;;;7.03;;
11086;SDS011;5597;47.588;9.642;2023-11-22T03:33:42;8.60;;;7.70;;
11086;SDS011;5597;47.588;9.642;2023-11-22T03:36:07;11.50;;;9.43;;
11086;SDS011;5597;47.588;9.642;2023-11-22T03:38:36;9.57;;;8.43;;
11086;SDS011;5597;47.588;9.642;2023-11-22T03:41:01;10.97;;;9.00;;
11086;SDS011;5597;47.588;9.642;2023-11-22T03:43:27;9.30;;;8.30;;
11086;SDS011;5597;47.588;9.642;2023-11-22T03:45:52;8.93;;;8.03;;
11086;SDS011;5597;47.588;9.642;2023-11-22T03:48:18;10.37;;;8.13;;
11086;SDS011;5597;47.588;9.642;2023-11-22T03:50:45;8.50;;;7.13;;
11086;SDS011;5597;47.588;9.642;2023-11-22T03:53:10;9.77;;;7.90;;
11086;SDS011;5597;47.588;9.642;2023-11-22T03:55:36;8.90;;;8.00;;
11086;SDS011;5597;47.588;9.642;2023-11-22T03:58:01;9.73;;;8.20;;
11086;SDS011;5597;47.588;9.642;2023-11-22T04:00:27;10.13;;;8.90;;
11086;SDS011;5597;47.588;9.642;2023-11-22T04:02:52;11.20;;;9.40;;
11086;SDS011;5597;47.588;9.642;2023-11-22T04:05:19;10.17;;;8.23;;
11086;SDS011;5597;47.588;9.642;2023-11-22T04:07:45;9.10;;;8.20;;
11086;SDS011;5597;47.588;9.642;2023-11-22T04:10:10;9.07;;;8.07;;
11086;SDS011;5597;47.588;9.642;2023-11-22T04:12:36;9.90;;;8.33;;
11086;SDS011;5597;47.588;9.642;2023-11-22T04:15:02;9.90;;;8.83;;
11086;SDS011;5597;47.588;9.642;2023-11-22T04:17:29;9.23;;;8.07;;
11086;SDS011;5597;47.588;9.642;2023-11-22T04:19:54;10.53;;;8.50;;
11086;SDS011;5597;47.588;9.642;2023-11-22T04:22:20;9.40;;;8.37;;
11086;SDS011;5597;47.588;9.642;2023-11-22T04:24:45;9.27;;;8.20;;
11086;SDS011;5597;47.588;9.642;2023-11-22T04:27:11;9.90;;;8.37;;
11086;SDS011;5597;47.588;9.642;2023-11-22T04:29:36;10.43;;;9.13;;
11086;SDS011;5597;47.588;9.642;2023-11-22T04:32:02;11.60;;;9.50;;
11086;SDS011;5597;47.588;9.642;2023-11-22T04:34:28;11.87;;;9.43;;
11086;SDS011;5597;47.588;9.642;2023-11-22T04:36:53;13.20;;;10.07;;
11086;SDS011;5597;47.588;9.642;2023-11-22T04:39:19;14.90;;;11.10;;
11086;SDS011;5597;47.588;9.642;2023-11-22T04:41:44;14.67;;;11.07;;
11086;SDS011;5597;47.588;9.642;2023-11-22T04:44:10;14.10;;;12.20;;
11086;SDS011;5597;47.588;9.642;2023-11-22T04:46:36;17.57;;;12.97;;
11086;SDS011;5597;47.588;9.642;2023-11-22T04:49:01;17.67;;;12.43;;
11086;SDS011;5597;47.588;9.642;2023-11-22T04:51:27;16.07;;;11.87;;
11086;SDS011;5597;47.588;9.642;2023-11-22T04:53:54;14.93;;;11.97;;
11086;SDS011;5597;47.588;9.642;2023-11-22T04:56:19;15.30;;;12.37;;
11086;SDS011;5597;47.588;9.642;2023-11-22T04:58:45;15.27;;;12.80;;
11086;SDS011;5597;47.588;9.642;2023-11-22T05:01:11;17.73;;;13.77;;
11086;SDS011;5597;47.588;9.642;2023-11-22T05:03:36;16.27;;;12.50;;
11086;SDS011;5597;47.588;9.642;2023-11-22T05:06:03;18.37;;;13.10;;
11086;SDS011;5597;47.588;9.642;2023-11-22T05:08:29;17.83;;;12.30;;
11086;SDS011;5597;47.588;9.642;2023-11-22T05:10:55;17.10;;;13.00;;
11086;SDS011;5597;47.588;9.642;2023-11-22T05:13:21;16.77;;;12.97;;
11086;SDS011;5597;47.588;9.642;2023-11-22T05:15:46;16.53;;;12.90;;
11086;SDS011;5597;47.588;9.642;2023-11-22T05:18:12;15.50;;;11.67;;
11086;SDS011;5597;47.588;9.642;2023-11-22T05:20:37;14.60;;;11.87;;
11086;SDS011;5597;47.588;9.642;2023-11-22T05:23:03;15.43;;;12.40;;
11086;SDS011;5597;47.588;9.642;2023-11-22T05:25:29;15.00;;;12.30;;
11086;SDS011;5597;47.588;9.642;2023-11-22T05:27:55;14.57;;;12.00;;
11086;SDS011;5597;47.588;9.642;2023-11-22T05:30:20;14.07;;;11.67;;
11086;SDS011;5597;47.588;9.642;2023-11-22T05:32:47;15.47;;;12.27;;
11086;SDS011;5597;47.588;9.642;2023-11-22T05:35:13;15.40;;;11.60;;
11086;SDS011;5597;47.588;9.642;2023-11-22T05:37:39;15.50;;;11.97;;
11086;SDS011;5597;47.588;9.642;2023-11-22T05:40:05;13.80;;;10.67;;
11086;SDS011;5597;47.588;9.642;2023-11-22T05:42:35;9.87;;;8.13;;
11086;SDS011;5597;47.588;9.642;2023-11-22T05:45:01;8.67;;;6.47;;
11086;SDS011;5597;47.588;9.642;2023-11-22T05:47:28;4.33;;;3.53;;
11086;SDS011;5597;47.588;9.642;2023-11-22T05:49:54;3.87;;;3.23;;
11086;SDS011;5597;47.588;9.642;2023-11-22T05:52:19;3.07;;;2.40;;
11086;SDS011;5597;47.588;9.642;2023-11-22T05:54:47;2.33;;;2.07;;
11086;SDS011;5597;47.588;9.642;2023-11-22T05:57:12;2.00;;;1.70;;
11086;SDS011;5597;47.588;9.642;2023-11-22T05:59:38;2.10;;;1.83;;
11086;SDS011;5597;47.588;9.642;2023-11-22T06:02:03;2.37;;;1.70;;
11086;SDS011;5597;47.588;9.642;2023-11-22T06:04:29;2.17;;;1.90;;
11086;SDS011;5597;47.588;9.642;2023-11-22T06:06:55;2.17;;;1.90;;
11086;SDS011;5597;47.588;9.642;2023-11-22T06:09:21;4.03;;;3.53;;
11086;SDS011;5597;47.588;9.642;2023-11-22T06:11:48;5.07;;;4.63;;
11086;SDS011;5597;47.588;9.642;2023-11-22T06:14:13;2.67;;;2.13;;
11086;SDS011;5597;47.588;9.642;2023-11-22T06:16:39;2.80;;;2.40;;
11086;SDS011;5597;47.588;9.642;2023-11-22T06:19:04;3.30;;;2.60;;
11086;SDS011;5597;47.588;9.642;2023-11-22T06:21:30;2.30;;;2.10;;
11086;SDS011;5597;47.588;9.642;2023-11-22T06:23:56;2.33;;;2.13;;
11086;SDS011;5597;47.588;9.642;2023-11-22T06:26:23;2.53;;;2.20;;
11086;SDS011;5597;47.588;9.642;2023-11-22T06:28:49;2.20;;;2.00;;
11086;SDS011;5597;47.588;9.642;2023-11-22T06:31:15;2.60;;;2.00;;
11086;SDS011;5597;47.588;9.642;2023-11-22T06:33:40;2.10;;;1.90;;
11086;SDS011;5597;47.588;9.642;2023-11-22T06:36:06;2.53;;;1.50;;
11086;SDS011;5597;47.588;9.642;2023-11-22T06:38:34;1.90;;;1.10;;
11086;SDS011;5597;47.588;9.642;2023-11-22T06:41:00;1.30;;;1.10;;
11086;SDS011;5597;47.588;9.642;2023-11-22T06:43:25;1.20;;;1.10;;
11086;SDS011;5597;47.588;9.642;2023-11-22T06:45:51;1.20;;;0.97;;
11086;SDS011;5597;47.588;9.642;2023-11-22T06:48:17;1.10;;;1.00;;
11086;SDS011;5597;47.588;9.642;2023-11-22T06:50:43;0.90;;;0.90;;
11086;SDS011;5597;47.588;9.642;2023-11-22T06:53:10;1.10;;;1.00;;
11086;SDS011;5597;47.588;9.642;2023-11-22T06:55:36;1.83;;;1.10;;
11086;SDS011;5597;47.588;9.642;2023-11-22T06:58:03;1.40;;;1.20;;
11086;SDS011;5597;47.588;9.642;2023-11-22T07:00:30;1.20;;;1.10;;
11086;SDS011;5597;47.588;9.642;2023-11-22T07:02:56;1.47;;;1.37;;
11086;SDS011;5597;47.588;9.642;2023-11-22T07:05:21;1.80;;;1.70;;
11086;SDS011;5597;47.588;9.642;2023-11-22T07:07:47;1.90;;;1.67;;
11086;SDS011;5597;47.588;9.642;2023-11-22T07:10:14;1.67;;;1.57;;
11086;SDS011;5597;47.588;9.642;2023-11-22T07:12:40;2.67;;;1.73;;
11086;SDS011;5597;47.588;9.642;2023-11-22T07:15:08;2.23;;;2.00;;
11086;SDS011;5597;47.588;9.642;2023-11-22T07:17:34;2.47;;;2.27;;
11086;SDS011;5597;47.588;9.642;2023-11-22T07:20:00;2.47;;;2.27;;
11086;SDS011;5597;47.588;9.642;2023-11-22T07:22:26;3.07;;;2.67;;
11086;SDS011;5597;47.588;9.642;2023-11-22T07:24:51;2.67;;;2.47;;
11086;SDS011;5597;47.588;9.642;2023-11-22T07:27:19;2.97;;;2.57;;
11086;SDS011;5597;47.588;9.642;2023-11-22T07:29:45;3.13;;;2.60;;
11086;SDS011;5597;47.588;9.642;2023-11-22T07:32:11;3.17;;;2.87;;
11086;SDS011;5597;47.588;9.642;2023-11-22T07:34:38;3.20;;;2.90;;
11086;SDS011;5597;47.588;9.642;2023-11-22T07:37:05;2.83;;;2.63;;
11086;SDS011;5597;47.588;9.642;2023-11-22T07:39:36;3.10;;;2.70;;
11086;SDS011;5597;47.588;9.642;2023-11-22T07:42:03;3.40;;;2.67;;
11086;SDS011;5597;47.588;9.642;2023-11-22T07:44:32;3.93;;;3.17;;
11086;SDS011;5597;47.588;9.642;2023-11-22T07:47:00;2.80;;;2.50;;
11086;SDS011;5597;47.588;9.642;2023-11-22T07:49:27;2.80;;;2.50;;
11086;SDS011;5597;47.588;9.642;2023-11-22T07:51:53;3.20;;;2.90;;
11086;SDS011;5597;47.588;9.642;2023-11-22T07:54:21;3.07;;;2.60;;
11086;SDS011;5597;47.588;9.642;2023-11-22T07:56:50;4.00;;;2.47;;
11086;SDS011;5597;47.588;9.642;2023-11-22T07:59:17;2.77;;;2.50;;
11086;SDS011;5597;47.588;9.642;2023-11-22T08:01:43;3.30;;;3.00;;
11086;SDS011;5597;47.588;9.642;2023-11-22T08:04:10;3.30;;;2.73;;
11086;SDS011;5597;47.588;9.642;2023-11-22T08:06:35;3.33;;;3.03;;
11086;SDS011;5597;47.588;9.642;2023-11-22T08:09:02;2.87;;;2.53;;
11086;SDS011;5597;47.588;9.642;2023-11-22T08:11:29;4.43;;;3.50;;
11086;SDS011;5597;47.588;9.642;2023-11-22T08:13:54;3.40;;;3.03;;
11086;SDS011;5597;47.588;9.642;2023-11-22T08:16:22;3.57;;;3.10;;
11086;SDS011;5597;47.588;9.642;2023-11-22T08:18:48;3.53;;;3.13;;
11086;SDS011;5597;47.588;9.642;2023-11-22T08:21:14;3.47;;;3.00;;
11086;SDS011;5597;47.588;9.642;2023-11-22T08:23:39;3.73;;;3.00;;
11086;SDS011;5597;47.588;9.642;2023-11-22T08:26:05;3.50;;;3.20;;
11086;SDS011;5597;47.588;9.642;2023-11-22T08:28:31;3.93;;;3.13;;
11086;SDS011;5597;47.588;9.642;2023-11-22T08:30:57;4.07;;;3.37;;
11086;SDS011;5597;47.588;9.642;2023-11-22T08:33:23;4.03;;;3.43;;
11086;SDS011;5597;47.588;9.642;2023-11-22T08:35:48;5.03;;;3.77;;
11086;SDS011;5597;47.588;9.642;2023-11-22T08:38:17;4.40;;;3.57;;
11086;SDS011;5597;47.588;9.642;2023-11-22T08:40:44;3.67;;;3.00;;
11086;SDS011;5597;47.588;9.642;2023-11-22T08:43:10;3.97;;;3.37;;
11086;SDS011;5597;47.588;9.642;2023-11-22T08:45:35;3.87;;;3.10;;
11086;SDS011;5597;47.588;9.642;2023-11-22T08:48:01;3.90;;;3.50;;
11086;SDS011;5597;47.588;9.642;2023-11-22T08:50:26;5.33;;;3.60;;
11086;SDS011;5597;47.588;9.642;2023-11-22T08:52:52;3.97;;;3.50;;
11086;SDS011;5597;47.588;9.642;2023-11-22T08:55:18;5.23;;;4.47;;
11086;SDS011;5597;47.588;9.642;2023-11-22T08:57:47;4.43;;;3.87;;
11086;SDS011;5597;47.588;9.642;2023-11-22T09:00:16;4.37;;;3.47;;
11086;SDS011;5597;47.588;9.642;2023-11-22T09:02:47;3.73;;;3.40;;
11086;SDS011;5597;47.588;9.642;2023-11-22T09:05:17;3.53;;;3.23;;
11086;SDS011;5597;47.588;9.642;2023-11-22T09:07:44;4.23;;;3.57;;
11086;SDS011;5597;47.588;9.642;2023-11-22T09:10:10;3.83;;;3.43;;
11086;SDS011;5597;47.588;9.642;2023-11-22T09:12:41;4.37;;;3.27;;
11086;SDS011;5597;47.588;9.642;2023-11-22T09:15:08;3.37;;;3.07;;
11086;SDS011;5597;47.588;9.642;2023-11-22T09:17:38;3.33;;;3.03;;
11086;SDS011;5597;47.588;9.642;2023-11-22T09:20:11;3.43;;;2.83;;
11086;SDS011;5597;47.588;9.642;2023-11-22T09:22:43;3.47;;;3.17;;
11086;SDS011;5597;47.588;9.642;2023-11-22T09:27:48;2.70;;;2.30;;
11086;SDS011;5597;47.588;9.642;2023-11-22T09:30:16;2.83;;;2.53;;
11086;SDS011;5597;47.588;9.642;2023-11-22T09:33:10;2.70;;;2.30;;
11086;SDS011;5597;47.588;9.642;2023-11-22T09:35:40;3.30;;;3.00;;
11086;SDS011;5597;47.588;9.642;2023-11-22T09:38:07;3.07;;;2.77;;
11086;SDS011;5597;47.588;9.642;2023-11-22T09:40:36;3.30;;;2.80;;
11086;SDS011;5597;47.588;9.642;2023-11-22T09:43:12;3.30;;;2.90;;
11086;SDS011;5597;47.588;9.642;2023-11-22T09:45:42;3.63;;;3.00;;
11086;SDS011;5597;47.588;9.642;2023-11-22T09:48:16;4.87;;;3.80;;
11086;SDS011;5597;47.588;9.642;2023-11-22T09:53:40;2.90;;;2.47;;
11086;SDS011;5597;47.588;9.642;2023-11-22T09:56:15;4.57;;;2.83;;
11086;SDS011;5597;47.588;9.642;2023-11-22T09:58:41;3.37;;;3.07;;
11086;SDS011;5597;47.588;9.642;2023-11-22T10:01:12;3.43;;;2.80;;
11086;SDS011;5597;47.588;9.642;2023-11-22T10:03:38;4.50;;;3.33;;
11086;SDS011;5597;47.588;9.642;2023-11-22T10:06:04;3.83;;;2.90;;
11086;SDS011;5597;47.588;9.642;2023-11-22T10:08:30;3.00;;;2.70;;
11086;SDS011;5597;47.588;9.642;2023-11-22T10:10:56;3.30;;;3.00;;
11086;SDS011;5597;47.588;9.642;2023-11-22T10:13:23;3.63;;;3.07;;
11086;SDS011;5597;47.588;9.642;2023-11-22T10:15:51;3.30;;;3.00;;
11086;SDS011;5597;47.588;9.642;2023-11-22T10:18:18;3.97;;;2.90;;
11086;SDS011;5597;47.588;9.642;2023-11-22T10:20:45;3.43;;;3.13;;
11086;SDS011;5597;47.588;9.642;2023-11-22T10:23:12;3.20;;;2.87;;
11086;SDS011;5597;47.588;9.642;2023-11-22T10:25:45;3.73;;;3.33;;
11086;SDS011;5597;47.588;9.642;2023-11-22T10:28:16;3.30;;;2.80;;
11086;SDS011;5597;47.588;9.642;2023-11-22T10:30:45;3.20;;;2.77;;
11086;SDS011;5597;47.588;9.642;2023-11-22T10:33:11;2.93;;;2.63;;
11086;SDS011;5597;47.588;9.642;2023-11-22T10:35:39;2.47;;;2.20;;
11086;SDS011;5597;47.588;9.642;2023-11-22T10:38:08;2.50;;;2.30;;
11086;SDS011;5597;47.588;9.642;2023-11-22T10:40:35;2.57;;;2.37;;
11086;SDS011;5597;47.588;9.642;2023-11-22T10:43:02;3.37;;;2.63;;
11086;SDS011;5597;47.588;9.642;2023-11-22T10:45:29;3.87;;;3.13;;
11086;SDS011;5597;47.588;9.642;2023-11-22T10:47:58;3.40;;;2.83;;
11086;SDS011;5597;47.588;9.642;2023-11-22T10:50:27;2.87;;;2.40;;
11086;SDS011;5597;47.588;9.642;2023-11-22T10:52:53;2.70;;;2.50;;
11086;SDS011;5597;47.588;9.642;2023-11-22T10:55:26;3.10;;;2.80;;
11086;SDS011;5597;47.588;9.642;2023-11-22T10:57:52;4.83;;;3.13;;
11086;SDS011;5597;47.588;9.642;2023-11-22T11:00:21;3.20;;;2.90;;
11086;SDS011;5597;47.588;9.642;2023-11-22T11:02:51;3.53;;;2.93;;
11086;SDS011;5597;47.588;9.642;2023-11-22T11:05:21;3.00;;;2.63;;
11086;SDS011;5597;47.588;9.642;2023-11-22T11:08:06;3.10;;;2.80;;
11086;SDS011;5597;47.588;9.642;2023-11-22T11:10:40;3.40;;;3.00;;
11086;SDS011;5597;47.588;9.642;2023-11-22T11:13:09;3.57;;;2.80;;
11086;SDS011;5597;47.588;9.642;2023-11-22T11:15:36;3.00;;;2.70;;
11086;SDS011;5597;47.588;9.642;2023-11-22T11:18:03;4.03;;;2.90;;
11086;SDS011;5597;47.588;9.642;2023-11-22T11:20:51;3.97;;;2.67;;
11086;SDS011;5597;47.588;9.642;2023-11-22T11:23:36;3.80;;;2.90;;
11086;SDS011;5597;47.588;9.642;2023-11-22T11:26:19;3.07;;;2.67;;
11086;SDS011;5597;47.588;9.642;2023-11-22T11:28:49;3.23;;;2.93;;
11086;SDS011;5597;47.588;9.642;2023-11-22T11:31:16;2.93;;;2.53;;
11086;SDS011;5597;47.588;9.642;2023-11-22T11:38:47;3.03;;;2.73;;
11086;SDS011;5597;47.588;9.642;2023-11-22T11:41:14;3.27;;;2.97;;
11086;SDS011;5597;47.588;9.642;2023-11-22T11:46:09;2.97;;;2.67;;
11086;SDS011;5597;47.588;9.642;2023-11-22T11:48:35;3.10;;;2.80;;
11086;SDS011;5597;47.588;9.642;2023-11-22T11:51:01;3.20;;;2.70;;
11086;SDS011;5597;47.588;9.642;2023-11-22T11:53:27;3.13;;;2.73;;
11086;SDS011;5597;47.588;9.642;2023-11-22T11:55:55;3.20;;;2.50;;
11086;SDS011;5597;47.588;9.642;2023-11-22T11:58:22;3.10;;;2.80;;
11086;SDS011;5597;47.588;9.642;2023-11-22T12:00:50;3.23;;;2.87;;
11086;SDS011;5597;47.588;9.642;2023-11-22T12:03:17;3.37;;;2.70;;
11086;SDS011;5597;47.588;9.642;2023-11-22T12:05:46;3.00;;;2.70;;
11086;SDS011;5597;47.588;9.642;2023-11-22T12:08:14;2.90;;;2.60;;
11086;SDS011;5597;47.588;9.642;2023-11-22T12:10:42;3.27;;;2.70;;
11086;SDS011;5597;47.588;9.642;2023-11-22T12:13:08;2.60;;;2.40;;
11086;SDS011;5597;47.588;9.642;2023-11-22T12:15:34;3.00;;;2.60;;
11086;SDS011;5597;47.588;9.642;2023-11-22T12:18:00;2.90;;;2.60;;
11086;SDS011;5597;47.588;9.642;2023-11-22T12:20:26;2.97;;;2.57;;
11086;SDS011;5597;47.588;9.642;2023-11-22T12:22:56;2.73;;;2.53;;
11086;SDS011;5597;47.588;9.642;2023-11-22T12:25:25;2.83;;;2.50;;
11086;SDS011;5597;47.588;9.642;2023-11-22T12:27:53;3.33;;;3.03;;
11086;SDS011;5597;47.588;9.642;2023-11-22T12:30:32;3.70;;;2.87;;
11086;SDS011;5597;47.588;9.642;2023-11-22T12:33:05;3.50;;;3.00;;
11086;SDS011;5597;47.588;9.642;2023-11-22T12:35:35;3.60;;;3.03;;
11086;SDS011;5597;47.588;9.642;2023-11-22T12:38:01;5.73;;;4.13;;
11086;SDS011;5597;47.588;9.642;2023-11-22T12:40:29;4.30;;;3.90;;
11086;SDS011;5597;47.588;9.642;2023-11-22T12:43:01;4.43;;;3.73;;
11086;SDS011;5597;47.588;9.642;2023-11-22T12:45:29;3.57;;;3.20;;
11086;SDS011;5597;47.588;9.642;2023-11-22T12:47:55;4.83;;;4.33;;
11086;SDS011;5597;47.588;9.642;2023-11-22T12:50:30;5.37;;;3.93;;
11086;SDS011;5597;47.588;9.642;2023-11-22T12:53:07;4.23;;;3.83;;
11086;SDS011;5597;47.588;9.642;2023-11-22T12:55:43;4.73;;;3.80;;
11086;SDS011;5597;47.588;9.642;2023-11-22T12:58:11;5.67;;;4.27;;
11086;SDS011;5597;47.588;9.642;2023-11-22T13:00:37;4.50;;;4.10;;
11086;SDS011;5597;47.588;9.642;2023-11-22T13:03:06;4.27;;;3.87;;
11086;SDS011;5597;47.588;9.642;2023-11-22T13:05:33;5.23;;;4.03;;
11086;SDS011;5597;47.588;9.642;2023-11-22T13:07:59;4.70;;;3.83;;
11086;SDS011;5597;47.588;9.642;2023-11-22T13:10:24;4.10;;;3.60;;
11086;SDS011;5597;47.588;9.642;2023-11-22T13:12:51;3.50;;;3.20;;
11086;SDS011;5597;47.588;9.642;2023-11-22T13:15:20;3.90;;;3.50;;
11086;SDS011;5597;47.588;9.642;2023-11-22T13:17:51;4.40;;;3.50;;
11086;SDS011;5597;47.588;9.642;2023-11-22T13:20:20;3.67;;;3.37;;
11086;SDS011;5597;47.588;9.642;2023-11-22T13:22:52;4.07;;;3.57;;
11086;SDS011;5597;47.588;9.642;2023-11-22T13:25:19;5.40;;;3.87;;
11086;SDS011;5597;47.588;9.642;2023-11-22T13:27:47;4.00;;;3.30;;
11086;SDS011;5597;47.588;9.642;2023-11-22T13:30:17;3.87;;;3.40;;
11086;SDS011;5597;47.588;9.642;2023-11-22T13:32:45;3.63;;;3.30;;
11086;SDS011;5597;47.588;9.642;2023-11-22T13:35:12;4.07;;;3.60;;
11086;SDS011;5597;47.588;9.642;2023-11-22T13:37:42;4.03;;;3.57;;
11086;SDS011;5597;47.588;9.642;2023-11-22T13:40:13;3.83;;;3.40;;
11086;SDS011;5597;47.588;9.642;2023-11-22T13:42:44;5.30;;;3.30;;
11086;SDS011;5597;47.588;9.642;2023-11-22T13:45:11;4.13;;;3.57;;
11086;SDS011;5597;47.588;9.642;2023-11-22T13:47:45;5.43;;;4.37;;
11086;SDS011;5597;47.588;9.642;2023-11-22T13:50:15;4.33;;;3.73;;
11086;SDS011;5597;47.588;9.642;2023-11-22T13:52:49;4.53;;;3.97;;
11086;SDS011;5597;47.588;9.642;2023-11-22T13:55:16;4.33;;;3.67;;
11086;SDS011;5597;47.588;9.642;2023-11-22T13:57:47;4.17;;;3.47;;
11086;SDS011;5597;47.588;9.642;2023-11-22T14:00:13;4.30;;;3.90;;
11086;SDS011;5597;47.588;9.642;2023-11-22T14:02:44;4.43;;;3.80;;
11086;SDS011;5597;47.588;9.642;2023-11-22T14:05:11;4.23;;;3.80;;
11086;SDS011;5597;47.588;9.642;2023-11-22T14:07:37;7.83;;;3.90;;
11086;SDS011;5597;47.588;9.642;2023-11-22T14:10:03;4.40;;;3.73;;
11086;SDS011;5597;47.588;9.642;2023-11-22T14:12:31;3.93;;;3.57;;
11086;SDS011;5597;47.588;9.642;2023-11-22T14:15:00;4.43;;;3.67;;
11086;SDS011;5597;47.588;9.642;2023-11-22T14:17:25;4.73;;;4.23;;
11086;SDS011;5597;47.588;9.642;2023-11-22T14:19:54;4.33;;;3.23;;
11086;SDS011;5597;47.588;9.642;2023-11-22T14:22:21;5.37;;;3.83;;
11086;SDS011;5597;47.588;9.642;2023-11-22T14:24:47;4.03;;;3.43;;
11086;SDS011;5597;47.588;9.642;2023-11-22T14:27:14;3.83;;;3.43;;
11086;SDS011;5597;47.588;9.642;2023-11-22T14:29:39;4.10;;;3.70;;
11086;SDS011;5597;47.588;9.642;2023-11-22T14:32:06;4.87;;;4.27;;
11086;SDS011;5597;47.588;9.642;2023-11-22T14:34:32;5.40;;;4.43;;
11086;SDS011;5597;47.588;9.642;2023-11-22T14:36:58;4.87;;;4.37;;
11086;SDS011;5597;47.588;9.642;2023-11-22T14:39:23;5.13;;;4.47;;
11086;SDS011;5597;47.588;9.642;2023-11-22T14:41:49;5.23;;;4.73;;
11086;SDS011;5597;47.588;9.642;2023-11-22T14:44:16;4.90;;;4.40;;
11086;SDS011;5597;47.588;9.642;2023-11-22T14:46:42;6.30;;;5.00;;
11086;SDS011;5597;47.588;9.642;2023-11-22T14:49:08;5.57;;;4.97;;
11086;SDS011;5597;47.588;9.642;2023-11-22T14:51:34;6.87;;;4.97;;
11086;SDS011;5597;47.588;9.642;2023-11-22T14:53:59;5.90;;;5.27;;
11086;SDS011;5597;47.588;9.642;2023-11-22T14:56:25;6.27;;;5.30;;
11086;SDS011;5597;47.588;9.642;2023-11-22T14:58:51;5.87;;;5.10;;
11086;SDS011;5597;47.588;9.642;2023-11-22T15:01:22;6.30;;;5.53;;
11086;SDS011;5597;47.588;9.642;2023-11-22T15:03:51;6.13;;;5.20;;
11086;SDS011;5597;47.588;9.642;2023-11-22T15:06:20;6.27;;;5.57;;
11086;SDS011;5597;47.588;9.642;2023-11-22T15:08:46;6.00;;;5.27;;
11086;SDS011;5597;47.588;9.642;2023-11-22T15:11:12;6.10;;;5.40;;